Time;durP1;ratioP1;P1;durP2;ratioP2;P2;SDS_P1;SDS_P2;PMS_P1;PMS_P2;Temp;Humidity;BMP_temperature;BMP_pressure;BME280_temperature;BME280_humidity;BME280_pressure;Samples;Min_cycle;Max_cycle;Signal;HPM_P1;HPM_P2
2022/03/17 00:02:20;;;;;;;22.70;12.70;;;6.30;99.90;;;;;;5096893;28;20580;-86
2022/03/17 00:04:46;;;;;;;25.57;13.00;;;6.20;99.90;;;;;;5119251;28;20174;-84
2022/03/17 00:07:12;;;;;;;28.43;14.23;;;6.20;99.90;;;;;;5115314;28;20191;-85
2022/03/17 00:09:38;;;;;;;23.97;13.70;;;6.10;99.90;;;;;;5095390;28;20176;-85
2022/03/17 00:12:05;;;;;;;24.17;11.77;;;6.10;99.90;;;;;;5096047;28;20451;-86
2022/03/17 00:14:30;;;;;;;25.67;13.63;;;6.10;99.90;;;;;;5096193;28;20212;-85
2022/03/17 00:16:56;;;;;;;21.57;12.13;;;6.20;99.90;;;;;;5114493;28;20777;-85
2022/03/17 00:19:25;;;;;;;24.53;11.77;;;6.10;99.90;;;;;;5114256;28;20662;-85
2022/03/17 00:21:51;;;;;;;20.90;10.37;;;6.20;99.90;;;;;;5096154;28;20655;-85
2022/03/17 00:24:17;;;;;;;25.73;14.17;;;6.20;99.90;;;;;;5114469;28;20418;-85
2022/03/17 00:26:43;;;;;;;31.57;16.40;;;6.20;99.90;;;;;;5095862;28;20207;-85
2022/03/17 00:29:11;;;;;;;26.80;16.13;;;6.10;99.90;;;;;;5114261;28;20446;-84
2022/03/17 00:31:37;;;;;;;23.17;14.23;;;6.10;99.90;;;;;;5114267;28;20210;-85
2022/03/17 00:34:05;;;;;;;28.43;16.63;;;6.10;99.90;;;;;;5095952;28;20471;-85
2022/03/17 00:36:33;;;;;;;30.53;16.50;;;6.10;99.90;;;;;;5114303;28;20453;-87
2022/03/17 00:38:58;;;;;;;24.90;13.33;;;6.00;99.90;;;;;;5114368;28;20429;-87
2022/03/17 00:41:24;;;;;;;28.17;15.40;;;6.00;99.90;;;;;;5114071;28;20457;-87
2022/03/17 00:43:49;;;;;;;25.30;14.90;;;6.00;99.90;;;;;;5114270;28;20193;-86
2022/03/17 00:46:15;;;;;;;29.00;17.30;;;6.00;99.90;;;;;;5095696;28;20183;-85
2022/03/17 00:48:40;;;;;;;33.67;19.00;;;6.00;99.90;;;;;;5114012;28;20616;-86
2022/03/17 00:51:06;;;;;;;27.93;16.23;;;6.00;99.90;;;;;;5095682;28;20180;-85
2022/03/17 00:53:31;;;;;;;35.23;19.07;;;6.00;99.90;;;;;;5078807;28;20203;-86
2022/03/17 00:55:57;;;;;;;27.10;17.67;;;6.00;99.90;;;;;;5113674;28;20679;-86
2022/03/17 00:58:22;;;;;;;34.27;16.77;;;6.10;99.90;;;;;;5113625;28;20572;-85
2022/03/17 01:00:48;;;;;;;33.90;16.90;;;6.00;99.90;;;;;;5113852;28;20168;-85
2022/03/17 01:03:14;;;;;;;35.10;19.20;;;6.00;99.90;;;;;;5095440;28;20325;-84
2022/03/17 01:05:41;;;;;;;34.23;19.20;;;6.00;99.90;;;;;;5113679;28;20164;-84
2022/03/17 01:08:07;;;;;;;29.60;17.47;;;6.00;99.90;;;;;;5113368;28;20787;-85
2022/03/17 01:10:33;;;;;;;33.83;18.57;;;6.00;99.90;;;;;;5095114;28;20424;-85
2022/03/17 01:13:01;;;;;;;32.70;16.87;;;6.10;99.90;;;;;;5094869;28;20871;-85
2022/03/17 01:15:29;;;;;;;31.23;19.50;;;6.10;99.90;;;;;;5095134;28;20225;-86
2022/03/17 01:17:54;;;;;;;40.40;21.17;;;6.00;99.90;;;;;;5113177;28;20403;-86
2022/03/17 01:20:20;;;;;;;28.03;16.37;;;6.00;99.90;;;;;;5113249;28;20413;-85
2022/03/17 01:22:45;;;;;;;28.87;18.70;;;5.90;99.90;;;;;;5112975;28;20168;-85
2022/03/17 01:25:11;;;;;;;32.67;18.70;;;5.90;99.90;;;;;;5113338;28;20178;-84
2022/03/17 01:27:36;;;;;;;38.57;18.30;;;6.00;99.90;;;;;;5094496;28;20172;-84
2022/03/17 01:30:05;;;;;;;21.93;13.73;;;6.00;99.90;;;;;;5113042;28;20177;-86
2022/03/17 01:32:32;;;;;;;37.17;20.30;;;6.00;99.90;;;;;;5112929;28;20929;-85
2022/03/17 01:34:59;;;;;;;35.53;18.80;;;6.00;99.90;;;;;;5094561;28;20493;-85
2022/03/17 01:37:24;;;;;;;32.03;18.77;;;5.90;99.90;;;;;;5112638;28;20402;-84
2022/03/17 01:39:50;;;;;;;37.00;20.10;;;5.90;99.90;;;;;;5094327;28;20426;-85
2022/03/17 01:42:15;;;;;;;34.27;19.60;;;5.90;99.90;;;;;;5112235;28;20277;-85
2022/03/17 01:44:42;;;;;;;41.90;23.47;;;6.00;99.90;;;;;;5094694;28;20203;-85
2022/03/17 01:47:29;;;;;;;35.43;22.73;;;5.90;99.90;;;;;;5112528;28;20224;-85
2022/03/17 01:50:09;;;;;;;33.60;17.30;;;5.90;99.90;;;;;;5112323;28;20838;-84
2022/03/17 01:52:36;;;;;;;31.30;19.63;;;5.90;99.90;;;;;;5112249;28;20509;-84
2022/03/17 01:55:03;;;;;;;43.33;23.53;;;6.00;99.90;;;;;;5112156;28;20486;-84
2022/03/17 01:57:35;;;;;;;40.33;21.67;;;5.90;99.90;;;;;;5111993;28;20427;-83
2022/03/17 02:00:02;;;;;;;34.10;19.53;;;6.00;99.90;;;;;;5094294;28;20758;-85
2022/03/17 02:02:28;;;;;;;45.27;23.97;;;6.00;99.90;;;;;;5094129;28;20416;-86
2022/03/17 02:04:53;;;;;;;36.17;20.90;;;5.90;99.90;;;;;;5094572;28;20785;-81
2022/03/17 02:07:20;;;;;;;31.93;20.50;;;5.90;99.90;;;;;;5113406;28;20169;-80
2022/03/17 02:09:51;;;;;;;35.17;19.23;;;5.90;99.90;;;;;;5095049;28;20169;-81
2022/03/17 02:15:04;;;;;;;35.77;22.23;;;5.90;99.90;;;;;;5117428;28;20472;-81
2022/03/17 02:17:31;;;;;;;37.27;20.37;;;5.90;99.90;;;;;;5095270;28;20897;-82
2022/03/17 02:20:01;;;;;;;31.67;20.33;;;5.80;99.90;;;;;;5113715;28;20403;-81
2022/03/17 02:22:28;;;;;;;42.40;23.57;;;5.90;99.90;;;;;;5113495;28;20996;-82
2022/03/17 02:27:42;;;;;;;37.97;21.47;;;5.90;99.90;;;;;;5113128;28;20397;-82
2022/03/17 02:30:09;;;;;;;43.30;21.30;;;5.90;99.90;;;;;;5113111;28;20554;-82
2022/03/17 02:32:36;;;;;;;35.87;21.43;;;6.00;99.90;;;;;;5113166;28;20452;-82
2022/03/17 02:35:10;;;;;;;37.00;21.40;;;6.00;99.90;;;;;;5117279;28;20930;-80
2022/03/17 02:37:36;;;;;;;40.87;23.87;;;6.00;99.90;;;;;;5117355;28;20408;-80
2022/03/17 02:40:05;;;;;;;37.57;24.23;;;6.00;99.90;;;;;;5117200;28;20418;-80
2022/03/17 02:42:31;;;;;;;43.33;25.23;;;6.00;99.90;;;;;;5116997;28;20781;-80
2022/03/17 02:45:01;;;;;;;32.83;18.97;;;6.00;99.90;;;;;;5117251;28;20440;-80
2022/03/17 02:47:27;;;;;;;33.00;22.50;;;6.10;99.90;;;;;;5117243;28;20198;-80
2022/03/17 02:49:55;;;;;;;33.93;22.00;;;6.10;99.90;;;;;;5117214;28;20414;-81
2022/03/17 02:52:29;;;;;;;36.93;25.00;;;6.10;99.90;;;;;;5117136;28;20417;-80
2022/03/17 02:54:57;;;;;;;31.93;22.07;;;6.10;99.90;;;;;;5117049;28;20568;-80
2022/03/17 02:57:23;;;;;;;34.33;23.97;;;6.10;99.90;;;;;;5116798;28;20493;-80
2022/03/17 02:59:49;;;;;;;40.43;20.63;;;6.10;99.90;;;;;;5116984;28;20930;-80
2022/03/17 03:02:15;;;;;;;37.37;23.13;;;6.10;99.90;;;;;;5117039;28;20538;-80
2022/03/17 03:04:41;;;;;;;38.87;25.17;;;6.10;99.90;;;;;;5116978;28;20176;-80
2022/03/17 03:07:07;;;;;;;39.33;22.67;;;6.20;99.90;;;;;;5116910;28;20409;-80
2022/03/17 03:09:33;;;;;;;42.77;24.50;;;6.10;99.90;;;;;;5116831;28;20795;-80
2022/03/17 03:11:59;;;;;;;42.33;22.40;;;6.10;99.90;;;;;;5116497;28;20531;-80
2022/03/17 03:14:25;;;;;;;42.47;24.57;;;6.10;99.90;;;;;;5116730;28;20979;-80
2022/03/17 03:16:51;;;;;;;42.50;24.57;;;6.10;99.90;;;;;;5116694;28;20738;-80
2022/03/17 03:19:17;;;;;;;43.93;26.10;;;6.10;99.90;;;;;;5116523;28;20413;-81
2022/03/17 03:21:43;;;;;;;42.57;26.20;;;6.10;99.90;;;;;;5098205;28;20426;-81
2022/03/17 03:24:10;;;;;;;38.97;23.40;;;6.10;99.90;;;;;;5116627;28;20180;-81
2022/03/17 03:26:36;;;;;;;37.63;24.40;;;6.20;99.90;;;;;;5116125;28;20417;-81
2022/03/17 03:29:07;;;;;;;41.57;24.60;;;6.10;99.90;;;;;;5115544;28;20426;-81
2022/03/17 03:31:34;;;;;;;41.93;24.60;;;6.10;99.90;;;;;;5115438;28;20932;-81
2022/03/17 03:34:00;;;;;;;42.67;26.83;;;6.00;99.90;;;;;;5115802;28;20537;-81
2022/03/17 03:39:09;;;;;;;37.63;23.00;;;6.00;99.90;;;;;;5115511;28;20897;-81
2022/03/17 03:41:35;;;;;;;37.40;23.53;;;6.10;99.90;;;;;;5114137;28;20553;-81
2022/03/17 03:44:02;;;;;;;42.07;25.37;;;6.10;99.90;;;;;;5116175;28;20164;-81
2022/03/17 03:46:31;;;;;;;36.10;20.47;;;6.20;99.90;;;;;;5116068;28;20645;-81
2022/03/17 03:48:59;;;;;;;40.17;25.30;;;6.20;99.90;;;;;;5115994;28;20459;-81
2022/03/17 03:51:25;;;;;;;41.30;25.83;;;6.20;99.90;;;;;;5115899;28;20459;-81
2022/03/17 03:56:34;;;;;;;35.30;22.43;;;6.20;99.90;;;;;;5115924;28;20572;-81
2022/03/17 03:59:06;;;;;;;38.67;24.27;;;6.20;99.90;;;;;;5097522;28;20414;-81
2022/03/17 04:01:32;;;;;;;41.87;29.07;;;6.30;99.90;;;;;;5115752;28;20192;-81
2022/03/17 04:03:58;;;;;;;43.27;22.27;;;6.30;99.90;;;;;;5115845;28;20566;-81
2022/03/17 04:06:24;;;;;;;41.67;24.27;;;6.30;99.90;;;;;;5115562;28;20418;-81
2022/03/17 04:08:49;;;;;;;38.70;24.57;;;6.30;99.90;;;;;;5115511;28;20175;-80
2022/03/17 04:11:15;;;;;;;43.90;25.20;;;6.30;99.90;;;;;;5115309;28;20203;-80
2022/03/17 04:13:40;;;;;;;32.97;21.10;;;6.30;99.90;;;;;;5115543;28;20212;-81
2022/03/17 04:16:06;;;;;;;30.70;21.30;;;6.30;99.90;;;;;;5115324;28;20176;-81
2022/03/17 04:18:31;;;;;;;36.50;22.30;;;6.30;99.90;;;;;;5115504;28;20199;-81
2022/03/17 04:20:56;;;;;;;39.33;23.93;;;6.30;99.90;;;;;;5115375;28;20562;-81
2022/03/17 04:23:22;;;;;;;38.07;23.47;;;6.30;99.90;;;;;;5115480;28;20183;-81
2022/03/17 04:25:54;;;;;;;38.50;25.90;;;6.30;99.90;;;;;;5115145;28;20735;-82
2022/03/17 04:28:19;;;;;;;39.33;24.30;;;6.20;99.90;;;;;;5115397;28;20175;-81
2022/03/17 04:30:45;;;;;;;37.10;24.10;;;6.20;99.90;;;;;;5115319;28;20558;-81
2022/03/17 04:33:10;;;;;;;36.60;23.50;;;6.20;99.90;;;;;;5096887;28;20172;-81
2022/03/17 04:35:36;;;;;;;36.10;22.57;;;6.20;99.90;;;;;;5115208;28;20697;-82
2022/03/17 04:38:01;;;;;;;42.80;26.30;;;6.20;99.90;;;;;;5115098;28;20247;-81
2022/03/17 04:40:27;;;;;;;40.53;23.93;;;6.30;99.90;;;;;;5114606;28;20296;-82
2022/03/17 04:42:52;;;;;;;38.00;25.23;;;6.30;99.90;;;;;;5096743;28;20608;-81
2022/03/17 04:45:27;;;;;;;43.57;25.70;;;6.30;99.90;;;;;;5096768;28;20172;-82
2022/03/17 04:47:53;;;;;;;42.37;24.13;;;6.30;99.90;;;;;;5114741;28;20257;-81
2022/03/17 04:50:18;;;;;;;41.37;26.27;;;6.30;99.90;;;;;;5114713;28;20505;-81
2022/03/17 04:55:33;;;;;;;26.80;18.33;;;6.30;99.90;;;;;;5113947;28;20222;-81
2022/03/17 04:57:59;;;;;;;40.80;24.40;;;6.30;99.90;;;;;;5114608;28;20499;-81
2022/03/17 05:00:24;;;;;;;33.47;23.40;;;6.30;99.90;;;;;;5114644;28;20419;-83
2022/03/17 05:02:50;;;;;;;47.07;27.73;;;6.40;99.90;;;;;;5114613;28;20244;-81
2022/03/17 05:05:15;;;;;;;47.57;28.70;;;6.40;99.90;;;;;;5114587;28;20414;-82
2022/03/17 05:07:41;;;;;;;38.57;25.13;;;6.40;99.90;;;;;;5114466;28;20244;-81
2022/03/17 05:10:07;;;;;;;38.57;21.17;;;6.40;99.90;;;;;;5114071;28;20656;-81
2022/03/17 05:12:33;;;;;;;39.30;26.97;;;;;;;;;;5114330;28;20176;-81
2022/03/17 05:14:59;;;;;;;35.97;24.90;;;;;;;;;;5114317;28;20535;-81
2022/03/17 05:17:25;;;;;;;35.20;22.60;;;;;;;;;;5114239;28;20413;-81
2022/03/17 05:19:51;;;;;;;32.67;20.77;;;;;;;;;;5114321;28;20418;-81
2022/03/17 05:22:17;;;;;;;43.83;26.33;;;;;;;;;;5114135;28;20475;-81
2022/03/17 05:24:43;;;;;;;42.50;25.47;;;;;;;;;;5114098;28;20840;-81
2022/03/17 05:27:08;;;;;;;39.77;24.70;;;;;;;;;;5095451;28;20551;-81
2022/03/17 05:29:35;;;;;;;40.33;26.10;;;;;;;;;;5095833;28;20458;-81
2022/03/17 05:32:01;;;;;;;35.20;23.07;;;;;;;;;;5095821;28;20413;-81
2022/03/17 05:34:26;;;;;;;38.40;23.87;;;;;;;;;;5095718;28;20806;-82
2022/03/17 05:36:52;;;;;;;43.13;26.67;;;;;;;;;;5095581;28;20421;-81
2022/03/17 05:39:18;;;;;;;41.37;26.03;;;;;;;;;;5113756;28;20432;-81
2022/03/17 05:41:44;;;;;;;41.90;27.83;;;;;;;;;;5094934;28;20452;-81
2022/03/17 05:44:10;;;;;;;42.43;26.10;;;;;;;;;;5095559;28;20917;-81
2022/03/17 05:46:36;;;;;;;45.50;28.17;;;;;;;;;;5095571;28;20803;-82
2022/03/17 05:49:02;;;;;;;41.83;25.30;;;;;;;;;;5113717;28;20513;-81
2022/03/17 05:51:28;;;;;;;39.50;25.17;;;;;;;;;;5113722;28;20437;-81
2022/03/17 05:53:56;;;;;;;39.20;26.40;;;;;;;;;;5113454;28;20454;-81
2022/03/17 05:56:22;;;;;;;34.47;22.63;;;6.40;99.90;;;;;;5095610;28;20493;-81
2022/03/17 05:58:47;;;;;;;40.50;25.13;;;6.40;99.90;;;;;;5113634;28;20881;-81
2022/03/17 06:01:13;;;;;;;42.57;27.70;;;6.50;99.90;;;;;;5113614;28;20194;-81
2022/03/17 06:03:39;;;;;;;45.53;26.13;;;6.40;99.90;;;;;;5113536;28;20350;-81
2022/03/17 06:06:06;;;;;;;38.50;24.07;;;6.40;99.90;;;;;;5113393;28;20965;-81
2022/03/17 06:08:32;;;;;;;39.03;23.90;;;6.50;99.90;;;;;;5112595;28;20175;-81
2022/03/17 06:10:57;;;;;;;43.67;25.53;;;6.50;99.90;;;;;;5113050;28;20416;-82
2022/03/17 06:13:23;;;;;;;35.20;23.57;;;6.60;99.90;;;;;;5113343;28;20176;-81
2022/03/17 06:15:48;;;;;;;38.23;24.47;;;6.60;99.90;;;;;;5113500;28;20316;-81
2022/03/17 06:18:14;;;;;;;40.53;27.20;;;6.70;99.90;;;;;;5113381;28;20169;-81
2022/03/17 06:20:39;;;;;;;45.43;27.97;;;6.70;99.90;;;;;;5095128;28;20176;-82
2022/03/17 06:23:09;;;;;;;40.50;28.00;;;6.70;99.90;;;;;;5113214;28;20181;-81
2022/03/17 06:25:36;;;;;;;40.97;27.97;;;6.80;99.90;;;;;;5094728;28;20568;-81
2022/03/17 06:28:03;;;;;;;48.17;29.30;;;6.80;99.90;;;;;;5095085;28;20448;-81
2022/03/17 06:30:35;;;;;;;45.30;28.97;;;6.80;99.90;;;;;;5113094;28;20412;-80
2022/03/17 06:33:04;;;;;;;49.60;29.13;;;6.90;99.90;;;;;;5113151;28;20410;-80
2022/03/17 06:35:30;;;;;;;44.13;26.70;;;6.90;99.90;;;;;;5113084;28;20511;-80
2022/03/17 06:37:59;;;;;;;38.63;26.27;;;6.90;99.90;;;;;;5113052;28;20416;-80
2022/03/17 06:40:25;;;;;;;35.40;25.03;;;6.90;99.90;;;;;;5094132;28;20457;-80
2022/03/17 06:42:52;;;;;;;39.47;26.73;;;7.00;99.90;;;;;;5094976;28;20509;-81
2022/03/17 06:45:18;;;;;;;41.63;25.80;;;7.00;99.90;;;;;;5113142;28;20448;-81
2022/03/17 06:47:44;;;;;;;39.23;28.00;;;;;;;;;;5113161;28;20418;-81
2022/03/17 06:50:11;;;;;;;36.33;25.77;;;;;;;;;;5112934;28;20409;-81
2022/03/17 06:52:37;;;;;;;45.40;25.33;;;;;;;;;;5112946;28;20412;-81
2022/03/17 06:55:03;;;;;;;40.87;26.33;;;7.20;38.90;;;;;;5094221;28;20479;-81
2022/03/17 06:57:29;;;;;;;39.77;27.87;;;7.20;28.20;;;;;;5094710;28;20781;-81
2022/03/17 06:59:54;;;;;;;32.63;21.10;;;7.20;38.90;;;;;;5112720;28;20414;-81
2022/03/17 07:02:20;;;;;;;39.50;26.50;;;7.20;17.60;;;;;;5094549;28;20172;-81
2022/03/17 07:04:46;;;;;;;45.53;28.23;;;7.30;11.30;;;;;;5112914;28;20229;-81
2022/03/17 07:07:12;;;;;;;37.80;24.53;;;7.30;7.20;;;;;;5112818;28;20170;-81
2022/03/17 07:09:38;;;;;;;43.13;25.20;;;7.30;1.00;;;;;;5112909;28;20194;-80
2022/03/17 07:12:05;;;;;;;45.10;27.13;;;7.40;1.40;;;;;;5112436;28;20416;-80
2022/03/17 07:14:33;;;;;;;41.17;26.90;;;7.40;1.00;;;;;;5112480;28;21130;-80
2022/03/17 07:16:59;;;;;;;42.03;27.70;;;7.40;1.00;;;;;;5112710;28;20435;-80
2022/03/17 07:19:24;;;;;;;30.60;23.30;;;7.50;1.00;;;;;;5113963;28;20418;-81
2022/03/17 07:21:52;;;;;;;42.00;26.00;;;7.40;1.00;;;;;;5116506;28;20648;-80
2022/03/17 07:24:17;;;;;;;41.77;27.87;;;7.50;1.00;;;;;;5098272;28;20173;-80
2022/03/17 07:26:44;;;;;;;48.90;29.80;;;7.50;1.00;;;;;;5116123;28;20406;-80
2022/03/17 07:29:10;;;;;;;30.87;21.50;;;7.50;1.00;;;;;;5116213;28;20506;-80
2022/03/17 07:31:35;;;;;;;44.50;25.53;;;7.60;1.00;;;;;;5116365;28;20462;-81
2022/03/17 07:34:01;;;;;;;42.10;27.17;;;7.50;1.00;;;;;;5164052;22;20244;-81
2022/03/17 07:36:27;;;;;;;42.13;26.77;;;7.50;2.70;;;;;;5114929;28;20273;-81
2022/03/17 07:38:56;;;;;;;48.97;29.13;;;7.50;1.00;;;;;;5116201;28;20178;-82
2022/03/17 07:41:23;;;;;;;39.50;24.17;;;7.60;1.00;;;;;;5115784;28;20415;-81
2022/03/17 07:43:49;;;;;;;41.90;26.40;;;7.60;1.00;;;;;;5115637;28;20426;-81
2022/03/17 07:46:15;;;;;;;37.57;25.57;;;7.50;1.00;;;;;;5116191;28;20769;-81
2022/03/17 07:48:50;;;;;;;43.97;29.47;;;;;;;;;;5115911;28;20421;-81
2022/03/17 07:51:16;;;;;;;37.07;25.57;;;7.60;1.00;;;;;;5115932;28;20410;-81
2022/03/17 07:53:42;;;;;;;39.90;25.87;;;7.60;1.00;;;;;;5115762;28;20453;-81
2022/03/17 07:56:11;;;;;;;39.33;27.40;;;7.60;5.10;;;;;;5115568;28;20574;-81
2022/03/17 07:58:37;;;;;;;44.67;29.17;;;7.60;1.00;;;;;;5115775;28;20412;-82
2022/03/17 08:01:03;;;;;;;40.33;25.40;;;7.60;1.00;;;;;;5115813;28;20826;-83
2022/03/17 08:03:29;;;;;;;42.53;24.87;;;7.70;1.00;;;;;;5115670;28;20477;-83
2022/03/17 08:05:54;;;;;;;37.47;26.57;;;7.80;1.00;;;;;;5115556;28;20176;-82
2022/03/17 08:08:20;;;;;;;41.83;27.47;;;7.80;1.00;;;;;;5115473;28;20179;-83
2022/03/17 08:10:46;;;;;;;39.47;26.60;;;7.90;1.00;;;;;;5115014;28;20173;-81
2022/03/17 08:13:12;;;;;;;49.80;30.27;;;7.90;1.00;;;;;;5115729;28;20636;-84
2022/03/17 08:15:39;;;;;;;40.40;26.90;;;7.90;1.00;;;;;;5113954;28;20511;-81
2022/03/17 08:18:06;;;;;;;43.03;27.80;;;7.90;1.00;;;;;;5115565;28;20166;-80
2022/03/17 08:20:35;;;;;;;43.07;28.83;;;8.00;1.00;;;;;;5114925;28;20438;-84
2022/03/17 08:23:01;;;;;;;39.17;26.50;;;7.90;1.00;;;;;;5115377;28;20416;-80
2022/03/17 08:25:26;;;;;;;40.80;27.80;;;7.90;1.00;;;;;;5115206;28;20915;-84
2022/03/17 08:27:55;;;;;;;41.17;24.37;;;8.00;1.00;;;;;;5115349;28;20762;-84
2022/03/17 08:30:21;;;;;;;44.97;28.43;;;8.00;1.00;;;;;;5114661;28;20249;-85
2022/03/17 08:32:50;;;;;;;36.60;26.53;;;8.10;1.00;;;;;;5114630;28;21027;-84
2022/03/17 08:35:17;;;;;;;45.83;28.43;;;8.10;1.00;;;;;;5115236;28;20473;-84
2022/03/17 08:37:45;;;;;;;38.33;26.63;;;8.10;1.00;;;;;;5115215;28;20417;-84
2022/03/17 08:40:12;;;;;;;40.10;26.90;;;8.20;1.00;;;;;;5114712;28;20879;-83
2022/03/17 08:42:39;;;;;;;39.83;27.10;;;8.20;1.00;;;;;;5115071;28;20407;-84
2022/03/17 08:49:18;;;;;;;40.03;27.17;;;8.10;1.00;;;;;;5115018;27;20501;-83
2022/03/17 08:50:44;;;;;;;38.30;27.00;;;8.20;1.00;;;;;;5115007;28;20976;-85
2022/03/17 08:53:10;;;;;;;45.03;27.33;;;8.20;1.00;;;;;;5115620;28;20494;-84
2022/03/17 08:55:36;;;;;;;45.10;29.70;;;8.10;1.00;;;;;;5114513;28;20566;-84
2022/03/17 08:58:03;;;;;;;37.63;25.30;;;8.20;1.00;;;;;;5115087;28;20260;-84
2022/03/17 09:00:31;;;;;;;40.30;25.10;;;8.20;1.00;;;;;;5115045;28;20426;-85
2022/03/17 09:02:57;;;;;;;41.00;28.90;;;8.20;1.00;;;;;;5114891;28;20418;-84
2022/03/17 09:05:22;;;;;;;43.17;28.13;;;8.10;1.00;;;;;;5113387;28;20427;-84
2022/03/17 09:07:48;;;;;;;42.03;29.53;;;8.10;1.00;;;;;;5114395;28;20420;-83
2022/03/17 09:10:15;;;;;;;45.33;30.53;;;8.10;1.00;;;;;;5113994;28;20170;-84
2022/03/17 09:12:40;;;;;;;39.67;25.97;;;8.10;1.00;;;;;;5114544;28;20171;-81
2022/03/17 09:15:07;;;;;;;42.70;29.03;;;8.10;1.00;;;;;;5114167;28;20522;-82
2022/03/17 09:17:32;;;;;;;41.17;28.63;;;8.10;1.00;;;;;;5114298;28;20176;-82
2022/03/17 09:19:57;;;;;;;38.07;26.80;;;8.10;1.00;;;;;;5114205;28;20418;-82
2022/03/17 09:22:23;;;;;;;46.17;28.47;;;8.00;1.00;;;;;;5114187;28;20222;-77
2022/03/17 09:24:51;;;;;;;46.23;28.07;;;8.10;1.00;;;;;;5113760;28;20170;-77
2022/03/17 09:27:17;;;;;;;43.67;28.17;;;8.10;1.00;;;;;;5114125;28;20173;-77
2022/03/17 09:29:42;;;;;;;45.77;29.10;;;8.10;1.00;;;;;;5113642;28;20422;-77
2022/03/17 09:32:09;;;;;;;44.83;30.03;;;8.00;1.00;;;;;;5113650;28;20174;-77
2022/03/17 09:34:35;;;;;;;42.60;27.67;;;8.00;18.80;;;;;;5113808;28;20216;-77
2022/03/17 09:37:01;;;;;;;39.53;27.93;;;8.00;50.20;;;;;;5114017;28;20410;-77
2022/03/17 09:42:15;;;;;;;38.27;27.27;;;7.90;99.90;;;;;;5114145;28;20696;-78
2022/03/17 09:44:42;;;;;;;40.10;27.87;;;7.90;99.90;;;;;;5113910;28;20427;-78
2022/03/17 09:47:10;;;;;;;46.23;29.43;;;7.90;99.90;;;;;;5111998;28;20417;-78
2022/03/17 09:49:37;;;;;;;44.83;29.33;;;7.90;99.90;;;;;;5112392;28;20511;-78
2022/03/17 09:52:13;;;;;;;43.87;28.07;;;7.80;99.90;;;;;;5113802;28;20399;-77
2022/03/17 09:54:39;;;;;;;44.23;31.83;;;7.80;99.90;;;;;;5113320;28;20493;-79
2022/03/17 09:57:08;;;;;;;42.83;29.20;;;7.90;99.90;;;;;;5113647;28;20417;-78
2022/03/17 09:59:37;;;;;;;48.07;31.77;;;8.20;99.90;;;;;;5113623;28;20413;-78
2022/03/17 10:02:03;;;;;;;46.20;29.27;;;8.00;99.90;;;;;;5113501;28;20408;-78
2022/03/17 10:04:35;;;;;;;47.90;30.07;;;7.90;99.90;;;;;;5113576;28;20415;-78
2022/03/17 10:07:01;;;;;;;41.90;28.13;;;7.80;99.90;;;;;;5113499;27;20508;-78
2022/03/17 10:09:29;;;;;;;46.20;30.13;;;7.80;99.90;;;;;;5113178;28;20420;-78
2022/03/17 10:12:03;;;;;;;45.93;30.30;;;7.80;99.90;;;;;;5113229;28;20424;-78
2022/03/17 10:14:35;;;;;;;46.07;29.30;;;7.80;99.90;;;;;;5113349;28;20471;-78
2022/03/17 10:17:06;;;;;;;42.40;29.30;;;7.80;99.90;;;;;;5113297;28;20408;-78
2022/03/17 10:19:34;;;;;;;35.03;25.63;;;7.80;99.90;;;;;;5113373;28;20885;-78
2022/03/17 10:22:12;;;;;;;40.20;27.83;;;8.00;99.90;;;;;;5113311;28;20411;-78
2022/03/17 10:24:39;;;;;;;45.07;30.20;;;7.90;99.90;;;;;;5112991;28;20423;-78
2022/03/17 10:27:05;;;;;;;37.57;28.07;;;7.80;99.90;;;;;;5113361;28;20449;-78
2022/03/17 10:29:31;;;;;;;45.10;29.47;;;7.80;99.90;;;;;;5113275;28;20454;-78
2022/03/17 10:32:01;;;;;;;46.73;31.30;;;7.80;99.90;;;;;;5113295;28;20162;-79
2022/03/17 10:34:51;;;;;;;48.23;30.57;;;7.80;99.90;;;;;;5113127;28;20607;-78
2022/03/17 10:37:19;;;;;;;43.10;30.77;;;7.70;99.90;;;;;;5112760;28;20511;-78
2022/03/17 10:39:51;;;;;;;48.73;31.90;;;7.70;99.90;;;;;;5112813;28;20417;-79
2022/03/17 10:42:28;;;;;;;38.30;30.10;;;7.70;99.90;;;;;;5113164;28;20403;-78
2022/03/17 10:44:56;;;;;;;41.40;29.30;;;7.70;99.90;;;;;;5111969;28;20430;-78
2022/03/17 10:47:28;;;;;;;43.03;29.70;;;7.80;99.90;;;;;;5113095;28;20955;-78
2022/03/17 10:50:16;;;;;;;46.30;31.00;;;7.80;99.90;;;;;;5113184;28;20425;-78
2022/03/17 10:52:49;;;;;;;44.03;28.47;;;7.80;99.90;;;;;;5113063;28;20411;-78
2022/03/17 10:55:22;;;;;;;45.30;31.90;;;7.80;99.90;;;;;;5115351;28;20604;-78
2022/03/17 10:57:49;;;;;;;45.50;29.90;;;7.80;99.90;;;;;;5115915;28;20413;-78
2022/03/17 11:00:20;;;;;;;50.20;30.10;;;7.80;99.90;;;;;;5117091;28;20401;-78
2022/03/17 11:02:48;;;;;;;46.90;30.63;;;7.80;99.90;;;;;;5116820;28;20407;-81
2022/03/17 11:05:15;;;;;;;38.13;28.93;;;7.80;99.90;;;;;;5116547;28;20412;-81
2022/03/17 11:07:45;;;;;;;50.03;33.17;;;7.80;99.90;;;;;;5116846;28;20405;-79
2022/03/17 11:10:15;;;;;;;42.23;29.63;;;7.80;99.90;;;;;;5116451;28;20408;-78
2022/03/17 11:12:41;;;;;;;42.37;28.17;;;7.90;99.90;;;;;;5116872;28;20406;-79
2022/03/17 11:15:07;;;;;;;40.77;29.63;;;7.90;99.90;;;;;;5116769;28;20485;-78
2022/03/17 11:17:42;;;;;;;42.53;30.20;;;7.90;99.90;;;;;;5116923;28;20836;-78
2022/03/17 11:20:12;;;;;;;44.40;29.33;;;8.00;99.90;;;;;;5115728;28;20425;-79
2022/03/17 11:22:39;;;;;;;42.83;29.23;;;8.00;99.90;;;;;;5116868;28;20930;-79
2022/03/17 11:25:28;;;;;;;45.70;29.27;;;7.90;99.90;;;;;;5116200;28;20460;-78
2022/03/17 11:28:00;;;;;;;41.50;27.67;;;8.00;99.90;;;;;;5116491;28;20420;-78
2022/03/17 11:30:46;;;;;;;38.97;28.30;;;8.30;99.90;;;;;;5116425;27;20426;-79
2022/03/17 11:33:48;;;;;;;35.97;23.97;;;8.00;99.90;;;;;;5116035;28;20450;-79
2022/03/17 11:36:21;;;;;;;38.27;22.43;;;7.90;99.90;;;;;;5053282;28;20431;-78
2022/03/17 11:39:02;;;;;;;26.00;16.87;;;8.00;99.90;;;;;;5103291;28;20416;-78
2022/03/17 11:41:30;;;;;;;22.27;14.60;;;7.80;99.90;;;;;;5116375;28;20401;-78
2022/03/17 11:43:56;;;;;;;18.50;12.00;;;7.80;99.90;;;;;;5114955;28;20431;-78
2022/03/17 11:46:41;;;;;;;16.53;10.50;;;7.80;99.90;;;;;;5115203;28;20426;-78
2022/03/17 11:49:27;;;;;;;18.27;9.17;;;7.80;99.90;;;;;;5115323;28;20210;-79
2022/03/17 11:51:57;;;;;;;14.93;9.20;;;7.80;99.90;;;;;;5114771;28;20433;-78
2022/03/17 11:54:23;;;;;;;10.03;7.90;;;7.80;99.90;;;;;;5115480;28;20970;-78
2022/03/17 11:56:53;;;;;;;13.80;8.03;;;7.50;99.90;;;;;;5115704;28;20411;-78
2022/03/17 11:59:25;;;;;;;12.43;7.70;;;7.90;99.90;;;;;;5114957;28;20637;-78
2022/03/17 12:01:55;;;;;;;10.80;6.37;;;7.30;99.90;;;;;;5114492;28;20417;-78
2022/03/17 12:04:30;;;;;;;10.10;6.57;;;8.20;99.90;;;;;;5115960;28;20514;-78
2022/03/17 12:07:07;;;;;;;10.73;6.20;;;8.20;99.90;;;;;;5114456;28;20945;-78
2022/03/17 12:09:37;;;;;;;10.73;6.40;;;8.30;99.90;;;;;;5114211;28;20868;-79
2022/03/17 12:12:16;;;;;;;12.20;6.23;;;8.50;99.90;;;;;;5115701;28;20409;-78
2022/03/17 12:14:52;;;;;;;14.47;5.20;;;8.70;99.90;;;;;;5115494;28;20482;-78
2022/03/17 12:17:19;;;;;;;6.10;4.50;;;8.70;99.90;;;;;;5115720;28;20482;-78
2022/03/17 12:19:51;;;;;;;6.57;3.83;;;8.70;99.90;;;;;;5115622;28;20427;-78
2022/03/17 12:22:34;;;;;;;6.73;3.93;;;8.70;99.90;;;;;;5115549;28;20924;-78
2022/03/17 12:25:13;;;;;;;8.10;3.17;;;8.60;99.90;;;;;;5115124;28;20476;-78
2022/03/17 12:27:40;;;;;;;5.50;2.83;;;8.60;99.90;;;;;;5115529;28;20407;-78
2022/03/17 12:30:12;;;;;;;7.20;2.73;;;8.70;99.90;;;;;;5115399;28;20766;-78
2022/03/17 12:32:52;;;;;;;8.10;3.10;;;8.60;99.90;;;;;;5115176;28;20465;-78
2022/03/17 12:35:20;;;;;;;7.20;1.90;;;8.50;99.90;;;;;;5115183;28;20555;-78
2022/03/17 12:37:45;;;;;;;4.13;2.00;;;8.50;99.90;;;;;;5115330;28;20412;-78
2022/03/17 12:40:19;;;;;;;4.93;2.40;;;8.30;99.90;;;;;;5114837;28;20775;-78
2022/03/17 12:42:47;;;;;;;6.60;1.20;;;8.30;99.90;;;;;;5115158;28;20174;-78
2022/03/17 12:45:17;;;;;;;3.43;1.00;;;8.40;99.90;;;;;;5115153;28;20494;-78
2022/03/17 12:47:46;;;;;;;5.40;2.40;;;8.50;99.90;;;;;;5114996;28;20509;-78
2022/03/17 12:50:18;;;;;;;4.07;0.97;;;8.60;99.90;;;;;;5114928;28;20411;-78
2022/03/17 12:52:45;;;;;;;7.40;2.47;;;8.80;99.90;;;;;;5114946;28;20412;-78
2022/03/17 12:55:13;;;;;;;5.70;1.40;;;8.70;99.90;;;;;;5113201;28;20467;-78
2022/03/17 12:57:40;;;;;;;4.60;1.10;;;8.70;99.90;;;;;;5114841;28;20411;-78
2022/03/17 13:00:12;;;;;;;2.57;1.40;;;8.60;99.90;;;;;;5114885;28;20506;-78
2022/03/17 13:02:51;;;;;;;5.10;1.10;;;8.80;99.90;;;;;;5114771;28;20870;-78
2022/03/17 13:08:04;;;;;;;3.40;0.90;;;8.40;99.90;;;;;;5114882;28;20495;-78
2022/03/17 13:16:02;;;;;;;3.73;1.00;;;8.30;99.90;;;;;;5114745;28;20939;-78
2022/03/17 13:18:40;;;;;;;6.33;0.60;;;8.20;99.90;;;;;;5112737;28;20834;-79
2022/03/17 13:21:06;;;;;;;3.30;0.83;;;8.30;99.90;;;;;;5114338;28;20439;-78